createdAt,value
2017-10-23T00:01:34.550Z,98309.31
2017-10-23T00:04:02.068Z,98306.54
2017-10-23T00:06:29.581Z,98301.05
2017-10-23T00:08:57.083Z,98298.12
2017-10-23T00:11:24.604Z,98308.28
2017-10-23T00:13:52.104Z,98305.16
2017-10-23T00:16:19.615Z,98302.86
2017-10-23T00:18:47.133Z,98305.99
2017-10-23T00:21:14.674Z,98302.88
2017-10-23T00:23:42.180Z,98305.55
2017-10-23T00:26:09.695Z,98303.64
2017-10-23T00:28:47.687Z,98303.00
2017-10-23T00:31:15.284Z,98303.31
2017-10-23T00:33:42.785Z,98302.08
2017-10-23T00:36:10.285Z,98300.60
2017-10-23T00:38:37.796Z,98304.92
2017-10-23T00:41:05.293Z,98300.87
2017-10-23T00:43:32.807Z,98303.82
2017-10-23T00:46:00.319Z,98296.25
2017-10-23T00:48:27.822Z,98301.92
2017-10-23T00:50:55.327Z,98307.47
2017-10-23T00:53:33.148Z,98303.13
2017-10-23T00:56:00.647Z,98306.42
2017-10-23T00:58:28.168Z,98310.22
2017-10-23T01:00:55.689Z,98304.28
2017-10-23T01:03:23.208Z,98311.00
2017-10-23T01:05:50.721Z,98301.00
2017-10-23T01:08:18.248Z,98306.27
2017-10-23T01:10:45.788Z,98306.27
2017-10-23T01:16:09.485Z,98301.83
2017-10-23T01:18:40.811Z,98299.53
2017-10-23T01:21:08.312Z,98306.23
2017-10-23T01:23:35.834Z,98306.53
2017-10-23T01:26:03.336Z,98308.34
2017-10-23T01:28:30.871Z,98304.05
2017-10-23T01:30:58.387Z,98303.89
2017-10-23T01:33:25.909Z,98305.31
2017-10-23T01:35:53.447Z,98302.08
2017-10-23T01:38:20.955Z,98303.66
2017-10-23T01:40:48.455Z,98299.23
2017-10-23T01:43:15.956Z,98295.17
2017-10-23T01:45:43.461Z,98299.42
2017-10-23T01:48:10.971Z,98299.42
2017-10-23T01:50:38.484Z,98297.97
2017-10-23T01:53:05.990Z,98295.34
2017-10-23T01:55:33.519Z,98300.50
2017-10-23T01:58:01.041Z,98299.27
2017-10-23T02:00:28.542Z,98298.55
2017-10-23T02:14:27.904Z,98297.05
2017-10-23T02:16:55.408Z,98303.55
2017-10-23T02:19:22.916Z,98309.24
2017-10-23T02:21:50.517Z,98306.27
2017-10-23T02:24:18.078Z,98302.52
2017-10-23T02:26:45.635Z,98302.77
2017-10-23T02:29:13.158Z,98305.58
2017-10-23T02:31:40.657Z,98311.20
2017-10-23T02:34:08.161Z,98308.96
2017-10-23T02:39:31.889Z,98311.73
2017-10-23T02:41:59.392Z,98311.97
2017-10-23T02:44:26.907Z,98313.84
2017-10-23T02:46:54.418Z,98319.77
2017-10-23T02:49:35.059Z,98325.19
2017-10-23T02:52:13.913Z,98320.97
2017-10-23T02:54:41.431Z,98328.41
2017-10-23T02:57:08.969Z,98321.63
2017-10-23T02:59:47.335Z,98311.98
2017-10-23T03:02:14.832Z,98316.36
2017-10-23T03:04:42.333Z,98325.26
2017-10-23T03:07:09.861Z,98331.22
2017-10-23T03:09:37.394Z,98330.48
2017-10-23T03:12:04.908Z,98334.52
2017-10-23T03:14:40.151Z,98336.03
2017-10-23T03:17:07.656Z,98339.34
2017-10-23T03:19:35.164Z,98343.64
2017-10-23T03:22:02.684Z,98338.14
2017-10-23T03:24:30.200Z,98337.48
2017-10-23T03:26:58.733Z,98338.02
2017-10-23T03:29:26.248Z,98337.33
2017-10-23T03:31:53.747Z,98347.44
2017-10-23T03:34:21.256Z,98353.47
2017-10-23T03:36:48.779Z,98353.06
2017-10-23T03:39:16.289Z,98353.23
2017-10-23T03:41:43.814Z,98359.02
2017-10-23T03:44:11.315Z,98360.17
2017-10-23T03:46:38.813Z,98356.67
2017-10-23T03:49:06.314Z,98363.40
2017-10-23T03:51:33.834Z,98366.00
2017-10-23T03:54:01.330Z,98372.37
2017-10-23T03:56:28.839Z,98369.14
2017-10-23T03:58:56.340Z,98375.76
2017-10-23T04:01:23.845Z,98375.94
2017-10-23T04:03:51.368Z,98386.19
2017-10-23T04:06:18.879Z,98379.34
2017-10-23T04:08:46.401Z,98382.80
2017-10-23T04:11:13.903Z,98389.48
2017-10-23T04:13:41.404Z,98385.13
2017-10-23T04:16:08.916Z,98388.00
2017-10-23T04:30:08.295Z,98396.72
2017-10-23T04:32:35.815Z,98400.19
2017-10-23T04:35:03.316Z,98403.94
2017-10-23T04:37:30.839Z,98396.38
2017-10-23T04:39:58.357Z,98400.95
2017-10-23T04:42:25.946Z,98398.73
2017-10-23T04:44:53.458Z,98402.27
2017-10-23T04:47:20.987Z,98403.61
2017-10-23T04:49:48.491Z,98400.31
2017-10-23T04:52:16.012Z,98405.92
2017-10-23T04:54:43.635Z,98404.53
2017-10-23T04:57:11.241Z,98414.01
2017-10-23T04:59:38.749Z,98407.85
2017-10-23T05:02:06.250Z,98414.95
2017-10-23T05:04:33.768Z,98411.41
2017-10-23T05:07:01.267Z,98412.22
2017-10-23T05:09:28.820Z,98411.81
2017-10-23T05:11:56.339Z,98413.20
2017-10-23T05:14:23.855Z,98414.02
2017-10-23T05:16:54.409Z,98411.08
2017-10-23T05:19:31.886Z,98407.83
2017-10-23T05:21:59.427Z,98408.50
2017-10-23T05:24:26.945Z,98409.42
2017-10-23T05:26:54.457Z,98408.61
2017-10-23T05:29:21.994Z,98401.89
2017-10-23T05:31:49.511Z,98410.77
2017-10-23T05:34:17.023Z,98411.84
2017-10-23T05:36:44.559Z,98409.43
2017-10-23T05:39:12.107Z,98413.06
2017-10-23T05:41:39.611Z,98411.44
2017-10-23T05:44:14.068Z,98409.81
2017-10-23T05:46:41.579Z,98406.42
2017-10-23T05:49:09.106Z,98407.41
2017-10-23T05:51:36.633Z,98416.16
2017-10-23T05:54:05.851Z,98420.58
2017-10-23T05:56:33.343Z,98422.58
2017-10-23T05:59:00.880Z,98428.50
2017-10-23T06:01:28.511Z,98422.70
2017-10-23T06:03:56.014Z,98425.23
2017-10-23T06:06:23.515Z,98427.48
2017-10-23T06:08:51.047Z,98431.37
2017-10-23T06:11:18.600Z,98438.20
2017-10-23T06:13:46.135Z,98439.16
2017-10-23T06:16:13.639Z,98437.95
2017-10-23T06:18:45.163Z,98446.14
2017-10-23T06:21:12.680Z,98438.75
2017-10-23T06:23:40.182Z,98443.47
2017-10-23T06:26:07.897Z,98443.17
2017-10-23T06:28:35.426Z,98448.69
2017-10-23T06:31:02.955Z,98452.75
2017-10-23T06:33:30.452Z,98447.75
2017-10-23T06:35:57.951Z,98444.56
2017-10-23T06:38:25.669Z,98450.20
2017-10-23T06:40:53.194Z,98455.75
2017-10-23T06:43:20.725Z,98460.41
2017-10-23T06:45:48.220Z,98459.72
2017-10-23T06:48:15.753Z,98466.98
2017-10-23T06:50:43.268Z,98463.38
2017-10-23T06:53:10.784Z,98467.26
2017-10-23T06:55:38.328Z,98474.36
2017-10-23T06:58:05.835Z,98483.97
2017-10-23T07:00:33.363Z,98479.14
2017-10-23T07:03:00.965Z,98484.13
2017-10-23T07:05:28.495Z,98480.39
2017-10-23T07:19:31.378Z,98489.96
2017-10-23T07:21:58.883Z,98488.60
2017-10-23T07:24:26.393Z,98489.52
2017-10-23T07:26:53.897Z,98491.91
2017-10-23T07:29:21.399Z,98497.33
2017-10-23T07:31:49.071Z,98505.83
2017-10-23T07:34:27.219Z,98504.94
2017-10-23T07:36:54.767Z,98504.12
2017-10-23T07:39:22.276Z,98503.01
2017-10-23T07:41:49.778Z,98500.45
2017-10-23T07:44:17.280Z,98503.49
2017-10-23T07:46:44.796Z,98499.75
2017-10-23T07:49:12.318Z,98504.08
2017-10-23T07:51:39.821Z,98513.16
2017-10-23T07:54:07.320Z,98512.22
2017-10-23T07:56:34.831Z,98505.53
2017-10-23T07:59:02.345Z,98510.23
2017-10-23T08:01:29.854Z,98515.80
2017-10-23T08:03:57.361Z,98516.98
2017-10-23T08:06:24.859Z,98518.84
2017-10-23T08:08:52.362Z,98517.13
2017-10-23T08:11:19.858Z,98512.25
2017-10-23T08:13:58.227Z,98519.98
2017-10-23T08:16:25.783Z,98523.49
2017-10-23T08:18:53.304Z,98527.75
2017-10-23T08:21:20.801Z,98516.20
2017-10-23T08:23:48.317Z,98521.54
2017-10-23T08:26:15.829Z,98514.56
2017-10-23T08:28:43.365Z,98518.62
2017-10-23T08:31:10.880Z,98518.48
2017-10-23T08:33:38.382Z,98525.42
2017-10-23T08:36:05.928Z,98528.34
2017-10-23T08:38:33.449Z,98527.53
2017-10-23T08:41:00.984Z,98519.66
2017-10-23T08:43:28.486Z,98517.23
2017-10-23T08:57:44.122Z,98531.94
2017-10-23T09:00:11.628Z,98531.44
2017-10-23T09:02:39.169Z,98535.17
2017-10-23T09:05:06.689Z,98526.86
2017-10-23T09:07:34.632Z,98530.40
2017-10-23T09:10:02.142Z,98530.19
2017-10-23T09:24:14.847Z,98526.45
2017-10-23T09:26:42.339Z,98524.17
2017-10-23T09:29:09.838Z,98529.37
2017-10-23T09:31:37.358Z,98525.39
2017-10-23T09:34:04.871Z,98526.17
2017-10-23T09:36:32.425Z,98531.04
2017-10-23T09:50:33.781Z,98539.89
2017-10-23T09:53:01.363Z,98534.73
2017-10-23T09:55:36.673Z,98542.27
2017-10-23T09:58:04.187Z,98534.33
2017-10-23T10:00:31.709Z,98545.30
2017-10-23T10:02:59.238Z,98544.17
2017-10-23T10:05:26.746Z,98546.47
2017-10-23T10:07:54.275Z,98540.34
2017-10-23T10:10:21.779Z,98550.09
2017-10-23T10:12:49.310Z,98550.92
2017-10-23T10:15:17.574Z,98554.64
2017-10-23T10:17:45.097Z,98539.85
2017-10-23T10:20:12.703Z,98536.85
2017-10-23T10:22:40.204Z,98536.53
2017-10-23T10:25:07.715Z,98542.25
2017-10-23T10:27:35.279Z,98546.14
2017-10-23T10:30:02.812Z,98543.31
2017-10-23T10:32:30.318Z,98532.88
2017-10-23T10:34:58.183Z,98546.17
2017-10-23T10:37:25.935Z,98539.84
2017-10-23T10:39:53.451Z,98551.70
2017-10-23T10:42:20.966Z,98548.73
2017-10-23T10:44:48.475Z,98548.86
2017-10-23T10:47:16.027Z,98558.82
2017-10-23T10:49:43.548Z,98556.59
2017-10-23T10:52:11.063Z,98552.17
2017-10-23T10:54:38.605Z,98558.64
2017-10-23T10:57:06.123Z,98557.31
2017-10-23T10:59:33.656Z,98556.32
2017-10-23T11:02:01.168Z,98556.34
2017-10-23T11:04:28.693Z,98552.44
2017-10-23T11:06:56.198Z,98559.82
2017-10-23T11:09:23.716Z,98558.19
2017-10-23T11:11:51.253Z,98560.70
2017-10-23T11:14:18.774Z,98559.72
2017-10-23T11:16:46.292Z,98557.53
2017-10-23T11:19:13.848Z,98564.56
2017-10-23T11:21:41.374Z,98564.95
2017-10-23T11:24:08.894Z,98563.55
2017-10-23T11:26:36.403Z,98563.55
2017-10-23T11:32:00.125Z,98563.09
2017-10-23T11:34:27.628Z,98565.88
2017-10-23T11:36:55.139Z,98571.03
2017-10-23T11:39:22.654Z,98566.62
2017-10-23T11:41:54.660Z,98574.30
2017-10-23T11:44:22.184Z,98564.28
2017-10-23T11:46:49.695Z,98564.27
2017-10-23T11:49:17.209Z,98565.63
2017-10-23T11:51:44.711Z,98563.02
2017-10-23T11:54:12.228Z,98568.56
2017-10-23T11:56:39.858Z,98571.92
2017-10-23T11:59:11.618Z,98566.70
2017-10-23T12:01:39.123Z,98560.78
2017-10-23T12:04:06.637Z,98575.79
2017-10-23T12:06:34.156Z,98581.75
2017-10-23T12:09:01.683Z,98578.43
2017-10-23T12:11:29.215Z,98573.44
2017-10-23T12:13:56.727Z,98571.85
2017-10-23T12:16:24.277Z,98571.97
2017-10-23T12:18:51.790Z,98582.99
2017-10-23T12:21:20.811Z,98576.89
2017-10-23T12:23:48.332Z,98578.36
2017-10-23T12:26:15.847Z,98576.14
2017-10-23T12:28:43.375Z,98571.22
2017-10-23T12:31:10.951Z,98569.47
2017-10-23T12:33:38.483Z,98576.03
2017-10-23T12:36:05.987Z,98570.89
2017-10-23T12:38:33.577Z,98579.77
2017-10-23T12:41:01.207Z,98573.05
2017-10-23T12:43:28.721Z,98569.92
2017-10-23T12:45:56.218Z,98568.12
2017-10-23T12:48:23.741Z,98574.20
2017-10-23T12:50:51.275Z,98574.29
2017-10-23T12:53:18.792Z,98573.17
2017-10-23T12:55:46.330Z,98573.25
2017-10-23T12:58:13.852Z,98571.50
2017-10-23T13:00:42.427Z,98572.88
2017-10-23T13:03:09.948Z,98573.26
2017-10-23T13:05:37.451Z,98571.17
2017-10-23T13:08:04.961Z,98565.75
2017-10-23T13:10:32.473Z,98559.78
2017-10-23T13:13:00.119Z,98565.69
2017-10-23T13:15:27.653Z,98564.14
2017-10-23T13:17:55.168Z,98570.04
2017-10-23T13:20:24.168Z,98563.08
2017-10-23T13:22:51.716Z,98554.98
2017-10-23T13:25:19.228Z,98556.61
2017-10-23T13:27:46.792Z,98563.18
2017-10-23T13:30:14.362Z,98559.66
2017-10-23T13:32:41.888Z,98564.53
2017-10-23T13:35:09.390Z,98570.48
2017-10-23T13:37:36.896Z,98577.95
2017-10-23T13:40:04.420Z,98574.88
2017-10-23T13:42:31.969Z,98565.52
2017-10-23T13:48:12.391Z,98568.35
2017-10-23T13:50:39.906Z,98571.28
2017-10-23T13:53:07.424Z,98576.95
2017-10-23T13:55:34.950Z,98579.09
2017-10-23T13:58:02.453Z,98579.94
2017-10-23T14:00:30.004Z,98582.78
2017-10-23T14:02:57.517Z,98576.37
2017-10-23T14:05:25.050Z,98577.84
2017-10-23T14:07:52.600Z,98584.03
2017-10-23T14:10:20.117Z,98587.05
2017-10-23T14:12:47.722Z,98584.53
2017-10-23T14:15:15.254Z,98592.95
2017-10-23T14:17:42.764Z,98596.66
2017-10-23T14:20:10.324Z,98601.55
2017-10-23T14:22:37.852Z,98601.21
2017-10-23T14:25:05.374Z,98605.67
2017-10-23T14:27:32.881Z,98602.69
2017-10-23T14:30:00.392Z,98603.02
2017-10-23T14:32:27.899Z,98605.48
2017-10-23T14:37:22.932Z,98603.51
2017-10-23T14:39:50.455Z,98603.11
2017-10-23T14:42:17.999Z,98596.13
2017-10-23T14:44:45.520Z,98604.50
2017-10-23T14:47:13.134Z,98609.65
2017-10-23T14:49:40.832Z,98608.78
2017-10-23T14:52:10.464Z,98617.25
2017-10-23T14:54:38.140Z,98612.85
2017-10-23T14:57:05.666Z,98616.83
2017-10-23T14:59:33.199Z,98618.34
2017-10-23T15:02:00.870Z,98628.56
2017-10-23T15:04:28.384Z,98625.28
2017-10-23T15:06:55.969Z,98636.27
2017-10-23T15:09:23.527Z,98632.88
2017-10-23T15:11:51.036Z,98634.47
2017-10-23T15:14:18.585Z,98626.06
2017-10-23T15:16:46.108Z,98634.06
2017-10-23T15:22:12.900Z,98635.48
2017-10-23T15:24:40.425Z,98636.23
2017-10-23T15:27:08.176Z,98644.60
2017-10-23T15:29:35.685Z,98642.50
2017-10-23T15:32:03.230Z,98648.14
2017-10-23T15:34:30.747Z,98640.52
2017-10-23T15:36:58.296Z,98652.42
2017-10-23T15:39:25.844Z,98653.33
2017-10-23T15:41:53.384Z,98653.13
2017-10-23T15:44:20.894Z,98653.70
2017-10-23T15:46:48.431Z,98658.79
2017-10-23T15:49:15.948Z,98665.47
2017-10-23T15:51:53.481Z,98665.39
2017-10-23T15:54:21.010Z,98668.21
2017-10-23T15:56:56.380Z,98674.78
2017-10-23T15:59:24.042Z,98682.02
2017-10-23T16:01:51.572Z,98675.95
2017-10-23T16:04:19.105Z,98680.89
2017-10-23T16:06:46.614Z,98677.13
2017-10-23T16:09:14.135Z,98676.52
2017-10-23T16:11:41.660Z,98678.75
2017-10-23T16:14:09.167Z,98675.16
2017-10-23T16:16:36.683Z,98673.72
2017-10-23T16:19:04.227Z,98679.89
2017-10-23T16:21:31.776Z,98677.84
2017-10-23T16:23:59.307Z,98689.42
2017-10-23T16:26:26.880Z,98682.25
2017-10-23T16:28:54.414Z,98693.07
2017-10-23T16:31:21.956Z,98701.83
2017-10-23T16:33:49.488Z,98707.41
2017-10-23T16:36:17.027Z,98715.00
2017-10-23T16:38:44.543Z,98717.32
2017-10-23T16:41:12.060Z,98718.02
2017-10-23T16:43:39.576Z,98719.30
2017-10-23T16:49:03.309Z,98711.86
2017-10-23T16:51:30.824Z,98718.83
2017-10-23T16:53:58.378Z,98723.65
2017-10-23T16:56:25.915Z,98730.24
2017-10-23T16:58:53.433Z,98739.16
2017-10-23T17:01:20.977Z,98743.81
2017-10-23T17:03:48.480Z,98743.66
2017-10-23T17:06:16.085Z,98744.36
2017-10-23T17:08:43.708Z,98740.29
2017-10-23T17:11:11.306Z,98738.95
2017-10-23T17:13:38.935Z,98741.25
2017-10-23T17:16:06.451Z,98742.19
2017-10-23T17:18:34.086Z,98748.44
2017-10-23T17:21:01.597Z,98742.30
2017-10-23T17:23:29.108Z,98743.72
2017-10-23T17:25:56.626Z,98745.50
2017-10-23T17:28:24.218Z,98741.86
2017-10-23T17:30:51.726Z,98744.56
2017-10-23T17:33:19.335Z,98742.20
2017-10-23T17:36:01.740Z,98734.50
2017-10-23T17:38:29.262Z,98743.13
2017-10-23T17:40:56.770Z,98740.31
2017-10-23T17:43:24.300Z,98752.23
2017-10-23T17:45:51.811Z,98747.78
2017-10-23T17:48:19.335Z,98753.59
2017-10-23T17:50:46.885Z,98756.38
2017-10-23T17:53:14.388Z,98757.86
2017-10-23T17:55:41.904Z,98757.90
2017-10-23T17:58:09.437Z,98756.67
2017-10-23T18:00:36.968Z,98766.02
2017-10-23T18:03:04.587Z,98761.42
2017-10-23T18:05:32.248Z,98761.56
2017-10-23T18:19:40.662Z,98772.30
2017-10-23T18:22:08.190Z,98774.98
2017-10-23T18:24:35.723Z,98775.77
2017-10-23T18:27:03.245Z,98771.88
2017-10-23T18:29:30.865Z,98770.94
2017-10-23T18:31:58.432Z,98768.23
2017-10-23T18:34:25.949Z,98775.39
2017-10-23T18:36:53.491Z,98777.81
2017-10-23T18:39:21.062Z,98776.50
2017-10-23T18:41:48.573Z,98775.94
2017-10-23T18:44:16.098Z,98778.75
2017-10-23T18:46:43.610Z,98778.75
2017-10-23T18:49:13.712Z,98774.98
2017-10-23T18:51:41.350Z,98788.36
2017-10-23T18:54:08.881Z,98785.95
2017-10-23T18:56:36.415Z,98781.03
2017-10-23T18:59:04.058Z,98788.33
2017-10-23T19:01:32.163Z,98793.95
2017-10-23T19:03:59.736Z,98792.13
2017-10-23T19:06:27.259Z,98797.81
2017-10-23T19:08:54.774Z,98797.37
2017-10-23T19:11:22.292Z,98804.44
2017-10-23T19:13:49.853Z,98797.12
2017-10-23T19:16:17.375Z,98800.63
2017-10-23T19:18:44.895Z,98796.71
2017-10-23T19:21:12.440Z,98794.02
2017-10-23T19:23:54.854Z,98795.64
2017-10-23T19:26:22.397Z,98785.62
2017-10-23T19:28:49.941Z,98791.47
2017-10-23T19:31:17.566Z,98792.41
2017-10-23T19:33:45.095Z,98795.20
2017-10-23T19:36:12.636Z,98802.23
2017-10-23T19:38:40.229Z,98796.99
2017-10-23T19:41:07.742Z,98795.35
2017-10-23T19:43:35.283Z,98795.77
2017-10-23T19:46:02.961Z,98802.92
2017-10-23T19:48:30.464Z,98806.28
2017-10-23T19:51:07.905Z,98808.45
2017-10-23T19:53:35.492Z,98809.80
2017-10-23T19:56:03.005Z,98809.67
2017-10-23T19:58:30.517Z,98809.02
2017-10-23T20:00:58.023Z,98817.12
2017-10-23T20:03:25.539Z,98814.14
2017-10-23T20:06:03.491Z,98812.78
2017-10-23T20:08:30.991Z,98817.78
2017-10-23T20:10:58.531Z,98818.59
2017-10-23T20:13:26.071Z,98821.83
2017-10-23T20:15:53.637Z,98812.37
2017-10-23T20:18:21.180Z,98819.81
2017-10-23T20:20:48.781Z,98817.11
2017-10-23T20:23:19.699Z,98825.88
2017-10-23T20:25:47.200Z,98826.00
2017-10-23T20:28:14.750Z,98834.22
2017-10-23T20:30:42.285Z,98826.69
2017-10-23T20:33:09.786Z,98830.17
2017-10-23T20:35:37.325Z,98837.98
2017-10-23T20:38:04.876Z,98829.11
2017-10-23T20:40:32.388Z,98838.11
2017-10-23T20:42:59.913Z,98840.31
2017-10-23T20:45:27.432Z,98841.01
2017-10-23T20:47:54.968Z,98846.17
2017-10-23T20:53:19.792Z,98852.97
2017-10-23T20:55:47.304Z,98856.61
2017-10-23T20:58:14.795Z,98854.06
2017-10-23T21:00:42.303Z,98859.22
2017-10-23T21:03:19.739Z,98860.81
2017-10-23T21:05:47.264Z,98860.28
2017-10-23T21:08:14.860Z,98856.92
2017-10-23T21:10:42.374Z,98856.39
2017-10-23T21:13:09.885Z,98857.55
2017-10-23T21:15:37.425Z,98857.67
2017-10-23T21:18:04.972Z,98857.33
2017-10-23T21:20:32.496Z,98861.50
2017-10-23T21:23:00.026Z,98859.09
2017-10-23T21:25:27.618Z,98859.09
2017-10-23T21:27:55.133Z,98858.55
2017-10-23T21:30:22.630Z,98862.42
2017-10-23T21:32:50.170Z,98861.55
2017-10-23T21:35:17.691Z,98864.77
2017-10-23T21:37:45.312Z,98867.73
2017-10-23T21:40:12.832Z,98870.16
2017-10-23T21:42:41.229Z,98878.28
2017-10-23T21:45:08.744Z,98882.05
2017-10-23T21:47:36.251Z,98876.10
2017-10-23T21:50:05.365Z,98882.73
2017-10-23T21:52:32.857Z,98882.44
2017-10-23T21:55:00.383Z,98879.20
2017-10-23T21:57:27.904Z,98879.75
2017-10-23T21:59:55.418Z,98882.05
2017-10-23T22:02:22.913Z,98878.25
2017-10-23T22:04:50.428Z,98879.63
2017-10-23T22:07:17.934Z,98884.59
2017-10-23T22:21:20.164Z,98879.47
2017-10-23T22:23:47.658Z,98878.80
2017-10-23T22:26:15.179Z,98879.75
2017-10-23T22:28:42.667Z,98882.86
2017-10-23T22:31:10.169Z,98882.86
2017-10-23T22:33:37.699Z,98890.00
2017-10-23T22:36:05.199Z,98889.20
2017-10-23T22:38:32.707Z,98893.77
2017-10-23T22:41:00.223Z,98895.80
2017-10-23T22:43:27.736Z,98899.17
2017-10-23T22:45:55.242Z,98887.98
2017-10-23T22:48:22.744Z,98896.07
2017-10-23T22:50:50.251Z,98896.09
2017-10-23T22:53:17.749Z,98897.42
2017-10-23T22:55:50.138Z,98895.40
2017-10-23T22:58:17.683Z,98891.88
2017-10-23T23:00:55.175Z,98893.92
2017-10-23T23:03:22.697Z,98898.11
2017-10-23T23:05:50.190Z,98897.27
2017-10-23T23:08:17.707Z,98903.75
2017-10-23T23:22:17.101Z,98901.32
2017-10-23T23:24:44.627Z,98905.37
2017-10-23T23:27:12.428Z,98910.36
2017-10-23T23:32:36.130Z,98898.08
2017-10-23T23:35:03.641Z,98895.54
2017-10-23T23:37:31.253Z,98892.98
2017-10-23T23:39:58.768Z,98897.03
2017-10-23T23:42:26.369Z,98895.53
2017-10-23T23:44:53.877Z,98898.38
2017-10-23T23:47:21.379Z,98891.51
2017-10-23T23:49:48.894Z,98900.12
2017-10-23T23:52:16.417Z,98903.76
2017-10-23T23:54:43.937Z,98904.98
2017-10-23T23:57:11.838Z,98909.72
2017-10-23T23:59:39.344Z,98905.80
